sensor_id;sensor_type;location;lat;lon;timestamp;pressure;altitude;pressure_sealevel;temperature;humidity
22181;BME280;11256;50.830;12.834;2023-08-08T00:02:31;97438.34;;;14.58;67.39
22181;BME280;11256;50.830;12.834;2023-08-08T00:07:31;97442.34;;;14.52;67.21
22181;BME280;11256;50.830;12.834;2023-08-08T00:12:31;97435.56;;;14.49;67.42
22181;BME280;11256;50.830;12.834;2023-08-08T00:17:32;97433.91;;;14.40;67.44
22181;BME280;11256;50.830;12.834;2023-08-08T00:22:32;97425.25;;;14.38;67.30
22181;BME280;11256;50.830;12.834;2023-08-08T00:27:33;97413.31;;;14.25;67.59
22181;BME280;11256;50.830;12.834;2023-08-08T00:32:34;97433.16;;;14.26;67.65
22181;BME280;11256;50.830;12.834;2023-08-08T00:37:34;97437.13;;;14.20;67.58
22181;BME280;11256;50.830;12.834;2023-08-08T00:42:35;97429.88;;;14.15;67.96
22181;BME280;11256;50.830;12.834;2023-08-08T00:47:37;97418.59;;;14.08;67.64
22181;BME280;11256;50.830;12.834;2023-08-08T00:52:38;97420.75;;;13.98;67.62
22181;BME280;11256;50.830;12.834;2023-08-08T00:57:38;97424.28;;;13.98;67.76
22181;BME280;11256;50.830;12.834;2023-08-08T01:02:39;97428.91;;;13.98;67.75
22181;BME280;11256;50.830;12.834;2023-08-08T01:08:03;97424.69;;;13.92;67.72
22181;BME280;11256;50.830;12.834;2023-08-08T01:13:07;97421.31;;;13.86;68.02
22181;BME280;11256;50.830;12.834;2023-08-08T01:18:11;97415.16;;;13.81;67.72
22181;BME280;11256;50.830;12.834;2023-08-08T01:23:33;97420.00;;;13.84;67.96
22181;BME280;11256;50.830;12.834;2023-08-08T01:28:38;97405.00;;;13.73;67.70
22181;BME280;11256;50.830;12.834;2023-08-08T01:33:39;97403.81;;;13.65;67.97
22181;BME280;11256;50.830;12.834;2023-08-08T01:38:42;97408.44;;;13.65;68.03
22181;BME280;11256;50.830;12.834;2023-08-08T01:43:43;97420.94;;;13.66;68.02
22181;BME280;11256;50.830;12.834;2023-08-08T01:48:45;97411.47;;;13.63;68.17
22181;BME280;11256;50.830;12.834;2023-08-08T01:53:47;97417.72;;;13.64;68.01
22181;BME280;11256;50.830;12.834;2023-08-08T01:58:47;97413.50;;;13.58;68.01
22181;BME280;11256;50.830;12.834;2023-08-08T02:03:48;97406.56;;;13.52;67.88
22181;BME280;11256;50.830;12.834;2023-08-08T02:08:48;97405.25;;;13.49;68.07
22181;BME280;11256;50.830;12.834;2023-08-08T02:13:49;97408.09;;;13.44;68.01
22181;BME280;11256;50.830;12.834;2023-08-08T02:18:49;97404.06;;;13.42;68.28
22181;BME280;11256;50.830;12.834;2023-08-08T02:23:49;97397.59;;;13.38;68.32
22181;BME280;11256;50.830;12.834;2023-08-08T02:28:50;97397.41;;;13.34;68.12
22181;BME280;11256;50.830;12.834;2023-08-08T02:33:51;97413.56;;;13.31;67.88
22181;BME280;11256;50.830;12.834;2023-08-08T02:38:51;97406.50;;;13.30;68.17
22181;BME280;11256;50.830;12.834;2023-08-08T02:43:53;97415.38;;;13.22;68.07
22181;BME280;11256;50.830;12.834;2023-08-08T02:48:54;97409.25;;;13.16;68.04
22181;BME280;11256;50.830;12.834;2023-08-08T02:53:54;97405.69;;;13.16;68.17
22181;BME280;11256;50.830;12.834;2023-08-08T02:58:55;97401.47;;;13.10;68.11
22181;BME280;11256;50.830;12.834;2023-08-08T03:03:56;97396.84;;;13.10;68.08
22181;BME280;11256;50.830;12.834;2023-08-08T03:08:58;97401.09;;;13.03;68.00
22181;BME280;11256;50.830;12.834;2023-08-08T03:13:59;97393.09;;;12.93;67.99
22181;BME280;11256;50.830;12.834;2023-08-08T03:19:00;97394.13;;;12.97;68.09
22181;BME280;11256;50.830;12.834;2023-08-08T03:24:00;97392.50;;;12.96;68.20
22181;BME280;11256;50.830;12.834;2023-08-08T03:29:01;97388.75;;;12.92;68.33
22181;BME280;11256;50.830;12.834;2023-08-08T03:34:11;97382.91;;;12.85;67.95
22181;BME280;11256;50.830;12.834;2023-08-08T03:39:13;97371.63;;;12.78;68.03
22181;BME280;11256;50.830;12.834;2023-08-08T03:44:16;97394.41;;;12.82;68.17
22181;BME280;11256;50.830;12.834;2023-08-08T03:49:17;97363.75;;;12.76;68.27
22181;BME280;11256;50.830;12.834;2023-08-08T03:54:18;97366.28;;;12.73;68.20
22181;BME280;11256;50.830;12.834;2023-08-08T03:59:18;97361.88;;;12.77;68.41
22181;BME280;11256;50.830;12.834;2023-08-08T04:04:18;97356.81;;;12.70;68.49
22181;BME280;11256;50.830;12.834;2023-08-08T04:09:19;97365.16;;;12.74;68.42
22181;BME280;11256;50.830;12.834;2023-08-08T04:14:19;97373.44;;;12.69;68.62
22181;BME280;11256;50.830;12.834;2023-08-08T04:19:20;97372.84;;;12.72;68.74
22181;BME280;11256;50.830;12.834;2023-08-08T04:24:20;97369.00;;;12.73;69.07
22181;BME280;11256;50.830;12.834;2023-08-08T04:29:20;97367.31;;;12.77;69.16
22181;BME280;11256;50.830;12.834;2023-08-08T04:34:21;97368.22;;;12.72;69.40
22181;BME280;11256;50.830;12.834;2023-08-08T04:39:21;97371.22;;;12.71;69.28
22181;BME280;11256;50.830;12.834;2023-08-08T04:44:22;97372.03;;;12.71;69.45
22181;BME280;11256;50.830;12.834;2023-08-08T04:49:23;97375.06;;;12.70;69.66
22181;BME280;11256;50.830;12.834;2023-08-08T04:54:23;97369.00;;;12.73;69.71
22181;BME280;11256;50.830;12.834;2023-08-08T04:59:23;97382.50;;;12.78;70.25
22181;BME280;11256;50.830;12.834;2023-08-08T05:04:24;97376.78;;;12.79;71.17
22181;BME280;11256;50.830;12.834;2023-08-08T05:09:24;97380.09;;;12.90;71.33
22181;BME280;11256;50.830;12.834;2023-08-08T05:14:27;97375.75;;;12.89;70.64
22181;BME280;11256;50.830;12.834;2023-08-08T05:19:28;97365.88;;;12.93;71.36
22181;BME280;11256;50.830;12.834;2023-08-08T05:24:28;97370.22;;;12.94;70.95
22181;BME280;11256;50.830;12.834;2023-08-08T05:29:29;97363.16;;;12.93;71.28
22181;BME280;11256;50.830;12.834;2023-08-08T05:34:29;97363.59;;;13.00;71.67
22181;BME280;11256;50.830;12.834;2023-08-08T05:39:30;97350.69;;;12.92;71.74
22181;BME280;11256;50.830;12.834;2023-08-08T05:44:31;97370.63;;;13.01;71.58
22181;BME280;11256;50.830;12.834;2023-08-08T05:49:31;97375.50;;;13.04;72.09
22181;BME280;11256;50.830;12.834;2023-08-08T05:54:31;97384.34;;;13.09;71.92
22181;BME280;11256;50.830;12.834;2023-08-08T05:59:32;97375.88;;;13.11;71.95
22181;BME280;11256;50.830;12.834;2023-08-08T06:04:32;97372.56;;;13.14;72.74
22181;BME280;11256;50.830;12.834;2023-08-08T06:09:33;97368.81;;;13.10;72.38
22181;BME280;11256;50.830;12.834;2023-08-08T06:14:34;97371.44;;;13.15;72.58
22181;BME280;11256;50.830;12.834;2023-08-08T06:19:34;97364.19;;;13.24;72.86
22181;BME280;11256;50.830;12.834;2023-08-08T06:24:35;97385.44;;;13.22;72.47
22181;BME280;11256;50.830;12.834;2023-08-08T06:29:35;97390.78;;;13.27;73.29
22181;BME280;11256;50.830;12.834;2023-08-08T06:34:35;97386.94;;;13.28;73.95
22181;BME280;11256;50.830;12.834;2023-08-08T06:39:36;97398.72;;;13.37;74.09
22181;BME280;11256;50.830;12.834;2023-08-08T06:44:43;97383.50;;;13.36;74.98
22181;BME280;11256;50.830;12.834;2023-08-08T06:49:43;97391.53;;;13.54;74.84
22181;BME280;11256;50.830;12.834;2023-08-08T06:54:44;97389.50;;;13.60;74.46
22181;BME280;11256;50.830;12.834;2023-08-08T06:59:45;97382.94;;;13.61;74.54
22181;BME280;11256;50.830;12.834;2023-08-08T07:04:50;97393.28;;;13.72;75.17
22181;BME280;11256;50.830;12.834;2023-08-08T07:09:51;97397.13;;;13.71;75.57
22181;BME280;11256;50.830;12.834;2023-08-08T07:14:51;97396.94;;;13.68;76.20
22181;BME280;11256;50.830;12.834;2023-08-08T07:19:52;97387.84;;;13.72;76.45
22181;BME280;11256;50.830;12.834;2023-08-08T07:24:52;97396.19;;;13.76;77.08
22181;BME280;11256;50.830;12.834;2023-08-08T07:29:53;97372.94;;;13.70;77.53
22181;BME280;11256;50.830;12.834;2023-08-08T07:34:53;97361.97;;;13.83;77.47
22181;BME280;11256;50.830;12.834;2023-08-08T07:39:53;97379.94;;;13.84;76.35
22181;BME280;11256;50.830;12.834;2023-08-08T07:44:54;97381.22;;;13.87;76.61
22181;BME280;11256;50.830;12.834;2023-08-08T07:49:54;97380.94;;;13.88;76.73
22181;BME280;11256;50.830;12.834;2023-08-08T07:54:55;97376.78;;;13.91;77.27
22181;BME280;11256;50.830;12.834;2023-08-08T07:59:55;97372.81;;;13.97;77.59
22181;BME280;11256;50.830;12.834;2023-08-08T08:04:55;97379.28;;;14.01;80.56
22181;BME280;11256;50.830;12.834;2023-08-08T08:09:56;97399.09;;;14.37;79.46
22181;BME280;11256;50.830;12.834;2023-08-08T08:14:56;97386.31;;;14.76;79.63
22181;BME280;11256;50.830;12.834;2023-08-08T08:19:57;97381.16;;;15.14;78.41
22181;BME280;11256;50.830;12.834;2023-08-08T08:24:57;97394.78;;;15.44;76.71
22181;BME280;11256;50.830;12.834;2023-08-08T08:29:57;97387.69;;;15.52;76.33
22181;BME280;11256;50.830;12.834;2023-08-08T08:34:58;97386.25;;;15.54;75.01
22181;BME280;11256;50.830;12.834;2023-08-08T08:39:59;97390.94;;;15.71;75.43
22181;BME280;11256;50.830;12.834;2023-08-08T08:45:01;97377.59;;;15.86;76.06
22181;BME280;11256;50.830;12.834;2023-08-08T08:50:03;97377.25;;;16.13;75.00
22181;BME280;11256;50.830;12.834;2023-08-08T08:55:05;97381.09;;;16.29;74.82
22181;BME280;11256;50.830;12.834;2023-08-08T09:00:06;97367.41;;;16.38;73.30
22181;BME280;11256;50.830;12.834;2023-08-08T09:05:07;97379.59;;;16.66;72.77
22181;BME280;11256;50.830;12.834;2023-08-08T09:10:08;97375.31;;;16.94;72.90
22181;BME280;11256;50.830;12.834;2023-08-08T09:15:09;97372.31;;;17.16;72.59
22181;BME280;11256;50.830;12.834;2023-08-08T09:20:12;97382.16;;;17.46;70.27
22181;BME280;11256;50.830;12.834;2023-08-08T09:25:13;97377.84;;;17.65;67.81
22181;BME280;11256;50.830;12.834;2023-08-08T09:30:14;97374.97;;;17.82;68.65
22181;BME280;11256;50.830;12.834;2023-08-08T09:35:15;97371.94;;;17.96;68.03
22181;BME280;11256;50.830;12.834;2023-08-08T09:40:15;97367.47;;;18.12;68.10
22181;BME280;11256;50.830;12.834;2023-08-08T09:45:16;97364.91;;;18.27;67.13
22181;BME280;11256;50.830;12.834;2023-08-08T09:50:17;97365.97;;;18.35;65.90
22181;BME280;11256;50.830;12.834;2023-08-08T09:55:18;97360.66;;;18.30;64.78
22181;BME280;11256;50.830;12.834;2023-08-08T10:00:18;97367.38;;;18.20;65.06
22181;BME280;11256;50.830;12.834;2023-08-08T10:05:21;97356.06;;;18.22;64.65
22181;BME280;11256;50.830;12.834;2023-08-08T10:10:21;97350.13;;;18.20;64.33
22181;BME280;11256;50.830;12.834;2023-08-08T10:15:25;97359.75;;;18.26;64.40
22181;BME280;11256;50.830;12.834;2023-08-08T10:20:26;97355.25;;;18.21;63.63
22181;BME280;11256;50.830;12.834;2023-08-08T10:25:30;97353.78;;;18.24;61.80
22181;BME280;11256;50.830;12.834;2023-08-08T10:30:42;97348.03;;;18.17;62.92
22181;BME280;11256;50.830;12.834;2023-08-08T10:36:01;97338.69;;;18.18;62.94
22181;BME280;11256;50.830;12.834;2023-08-08T10:41:02;97338.94;;;18.25;63.81
22181;BME280;11256;50.830;12.834;2023-08-08T10:46:04;97328.25;;;18.32;63.94
22181;BME280;11256;50.830;12.834;2023-08-08T10:51:06;97305.59;;;18.35;63.78
22181;BME280;11256;50.830;12.834;2023-08-08T10:56:12;97313.91;;;18.59;62.90
22181;BME280;11256;50.830;12.834;2023-08-08T11:01:13;97300.41;;;18.78;62.78
22181;BME280;11256;50.830;12.834;2023-08-08T11:06:14;97290.34;;;19.18;59.55
22181;BME280;11256;50.830;12.834;2023-08-08T11:11:16;97281.59;;;19.52;58.31
22181;BME280;11256;50.830;12.834;2023-08-08T11:16:16;97282.59;;;19.99;58.47
22181;BME280;11256;50.830;12.834;2023-08-08T11:21:17;97278.69;;;20.00;58.32
22181;BME280;11256;50.830;12.834;2023-08-08T11:26:17;97264.56;;;20.29;58.71
22181;BME280;11256;50.830;12.834;2023-08-08T11:31:22;97267.97;;;20.69;57.34
22181;BME280;11256;50.830;12.834;2023-08-08T11:36:23;97259.78;;;20.88;57.20
22181;BME280;11256;50.830;12.834;2023-08-08T11:41:24;97275.63;;;20.91;57.51
22181;BME280;11256;50.830;12.834;2023-08-08T11:46:26;97252.09;;;21.28;53.32
22181;BME280;11256;50.830;12.834;2023-08-08T11:51:27;97258.16;;;21.18;54.26
22181;BME280;11256;50.830;12.834;2023-08-08T11:56:28;97259.13;;;21.25;53.69
22181;BME280;11256;50.830;12.834;2023-08-08T12:01:30;97243.59;;;21.17;54.71
22181;BME280;11256;50.830;12.834;2023-08-08T12:06:31;97254.06;;;21.27;55.45
22181;BME280;11256;50.830;12.834;2023-08-08T12:11:35;97257.41;;;21.71;53.89
22181;BME280;11256;50.830;12.834;2023-08-08T12:16:39;97258.56;;;22.08;53.55
22181;BME280;11256;50.830;12.834;2023-08-08T12:21:40;97245.09;;;22.25;51.78
22181;BME280;11256;50.830;12.834;2023-08-08T12:26:40;97239.97;;;22.69;48.08
22181;BME280;11256;50.830;12.834;2023-08-08T12:31:41;97231.91;;;23.09;47.75
22181;BME280;11256;50.830;12.834;2023-08-08T12:36:41;97238.75;;;23.15;48.64
22181;BME280;11256;50.830;12.834;2023-08-08T12:41:42;97212.38;;;22.95;48.81
22181;BME280;11256;50.830;12.834;2023-08-08T12:46:42;97223.63;;;23.09;50.36
22181;BME280;11256;50.830;12.834;2023-08-08T12:51:42;97232.91;;;23.20;48.89
22181;BME280;11256;50.830;12.834;2023-08-08T12:56:43;97223.09;;;23.00;48.10
22181;BME280;11256;50.830;12.834;2023-08-08T13:01:43;97231.50;;;23.07;49.18
22181;BME280;11256;50.830;12.834;2023-08-08T13:06:43;97226.97;;;23.18;47.75
22181;BME280;11256;50.830;12.834;2023-08-08T13:11:44;97228.09;;;23.17;48.22
22181;BME280;11256;50.830;12.834;2023-08-08T13:16:44;97223.31;;;23.14;49.52
22181;BME280;11256;50.830;12.834;2023-08-08T13:21:46;97237.34;;;23.54;47.04
22181;BME280;11256;50.830;12.834;2023-08-08T13:26:46;97231.16;;;23.64;45.99
22181;BME280;11256;50.830;12.834;2023-08-08T13:31:47;97216.81;;;23.55;45.54
22181;BME280;11256;50.830;12.834;2023-08-08T13:36:47;97215.09;;;23.47;45.78
22181;BME280;11256;50.830;12.834;2023-08-08T13:41:48;97213.53;;;23.46;47.04
22181;BME280;11256;50.830;12.834;2023-08-08T13:46:48;97230.94;;;23.46;44.90
22181;BME280;11256;50.830;12.834;2023-08-08T13:51:49;97223.19;;;23.59;45.02
22181;BME280;11256;50.830;12.834;2023-08-08T13:56:49;97210.63;;;23.65;44.52
22181;BME280;11256;50.830;12.834;2023-08-08T14:01:49;97222.88;;;23.64;42.73
22181;BME280;11256;50.830;12.834;2023-08-08T14:06:50;97245.00;;;23.64;44.30
22181;BME280;11256;50.830;12.834;2023-08-08T14:11:50;97249.16;;;23.51;43.65
22181;BME280;11256;50.830;12.834;2023-08-08T14:16:51;97242.72;;;23.43;44.15
22181;BME280;11256;50.830;12.834;2023-08-08T14:21:51;97239.59;;;23.45;43.68
22181;BME280;11256;50.830;12.834;2023-08-08T14:26:51;97243.84;;;23.39;43.38
22181;BME280;11256;50.830;12.834;2023-08-08T14:31:52;97235.25;;;23.18;43.39
22181;BME280;11256;50.830;12.834;2023-08-08T14:36:52;97254.03;;;23.31;43.28
22181;BME280;11256;50.830;12.834;2023-08-08T14:41:52;97262.38;;;23.35;44.12
22181;BME280;11256;50.830;12.834;2023-08-08T14:46:53;97258.59;;;23.20;43.75
22181;BME280;11256;50.830;12.834;2023-08-08T14:51:53;97277.47;;;23.15;44.18
22181;BME280;11256;50.830;12.834;2023-08-08T14:56:54;97277.78;;;23.10;44.04
22181;BME280;11256;50.830;12.834;2023-08-08T15:01:55;97280.00;;;23.01;44.13
22181;BME280;11256;50.830;12.834;2023-08-08T15:06:56;97287.31;;;22.90;45.04
22181;BME280;11256;50.830;12.834;2023-08-08T15:11:56;97306.28;;;22.69;45.40
22181;BME280;11256;50.830;12.834;2023-08-08T15:16:57;97316.41;;;22.61;45.21
22181;BME280;11256;50.830;12.834;2023-08-08T15:21:57;97314.19;;;22.48;46.11
22181;BME280;11256;50.830;12.834;2023-08-08T15:26:57;97315.84;;;22.33;46.67
22181;BME280;11256;50.830;12.834;2023-08-08T15:31:58;97316.66;;;22.15;46.93
22181;BME280;11256;50.830;12.834;2023-08-08T15:36:58;97325.25;;;21.91;47.53
22181;BME280;11256;50.830;12.834;2023-08-08T15:41:59;97367.56;;;21.79;47.95
22181;BME280;11256;50.830;12.834;2023-08-08T15:46:59;97392.13;;;21.53;50.53
22181;BME280;11256;50.830;12.834;2023-08-08T15:52:00;97379.19;;;21.38;50.56
22181;BME280;11256;50.830;12.834;2023-08-08T15:57:00;97371.63;;;21.20;51.55
22181;BME280;11256;50.830;12.834;2023-08-08T16:02:01;97376.34;;;21.04;51.53
22181;BME280;11256;50.830;12.834;2023-08-08T16:07:02;97374.63;;;20.84;52.02
22181;BME280;11256;50.830;12.834;2023-08-08T16:12:02;97378.22;;;20.72;51.99
22181;BME280;11256;50.830;12.834;2023-08-08T16:17:03;97366.75;;;20.55;52.20
22181;BME280;11256;50.830;12.834;2023-08-08T16:22:03;97370.69;;;20.42;52.60
22181;BME280;11256;50.830;12.834;2023-08-08T16:27:04;97385.09;;;20.35;53.03
22181;BME280;11256;50.830;12.834;2023-08-08T16:32:05;97384.56;;;20.18;53.08
22181;BME280;11256;50.830;12.834;2023-08-08T16:37:05;97390.56;;;20.08;53.25
22181;BME280;11256;50.830;12.834;2023-08-08T16:42:07;97372.00;;;19.93;53.71
22181;BME280;11256;50.830;12.834;2023-08-08T16:47:07;97363.00;;;19.80;54.06
22181;BME280;11256;50.830;12.834;2023-08-08T16:52:08;97355.34;;;19.74;54.16
22181;BME280;11256;50.830;12.834;2023-08-08T16:57:09;97343.22;;;19.63;54.94
22181;BME280;11256;50.830;12.834;2023-08-08T17:02:11;97356.53;;;19.61;55.26
22181;BME280;11256;50.830;12.834;2023-08-08T17:07:11;97360.50;;;19.51;55.34
22181;BME280;11256;50.830;12.834;2023-08-08T17:12:11;97353.78;;;19.37;55.28
22181;BME280;11256;50.830;12.834;2023-08-08T17:17:15;97366.16;;;19.31;55.45
22181;BME280;11256;50.830;12.834;2023-08-08T17:22:16;97366.47;;;19.17;55.74
22181;BME280;11256;50.830;12.834;2023-08-08T17:27:16;97371.03;;;19.13;55.90
22181;BME280;11256;50.830;12.834;2023-08-08T17:32:16;97376.41;;;19.10;56.13
22181;BME280;11256;50.830;12.834;2023-08-08T17:37:17;97365.44;;;19.10;56.72
22181;BME280;11256;50.830;12.834;2023-08-08T17:42:17;97358.13;;;19.02;56.86
22181;BME280;11256;50.830;12.834;2023-08-08T17:47:18;97342.75;;;18.89;57.18
22181;BME280;11256;50.830;12.834;2023-08-08T17:52:18;97355.34;;;18.90;57.33
22181;BME280;11256;50.830;12.834;2023-08-08T17:57:18;97353.28;;;18.87;57.76
22181;BME280;11256;50.830;12.834;2023-08-08T18:02:19;97340.44;;;18.79;58.25
22181;BME280;11256;50.830;12.834;2023-08-08T18:07:19;97348.25;;;18.77;58.32
22181;BME280;11256;50.830;12.834;2023-08-08T18:12:21;97338.19;;;18.69;58.28
22181;BME280;11256;50.830;12.834;2023-08-08T18:17:22;97352.13;;;18.64;58.00
22181;BME280;11256;50.830;12.834;2023-08-08T18:22:22;97353.47;;;18.58;58.34
22181;BME280;11256;50.830;12.834;2023-08-08T18:27:23;97364.66;;;18.53;58.32
22181;BME280;11256;50.830;12.834;2023-08-08T18:32:24;97359.72;;;18.46;58.47
22181;BME280;11256;50.830;12.834;2023-08-08T18:37:25;97356.75;;;18.39;58.54
22181;BME280;11256;50.830;12.834;2023-08-08T18:42:27;97350.19;;;18.32;58.79
22181;BME280;11256;50.830;12.834;2023-08-08T18:47:27;97353.00;;;18.23;58.94
22181;BME280;11256;50.830;12.834;2023-08-08T18:52:27;97366.22;;;18.21;58.75
22181;BME280;11256;50.830;12.834;2023-08-08T18:57:28;97358.09;;;18.13;59.20
22181;BME280;11256;50.830;12.834;2023-08-08T19:02:28;97349.16;;;18.04;59.51
22181;BME280;11256;50.830;12.834;2023-08-08T19:07:28;97366.06;;;18.06;59.36
22181;BME280;11256;50.830;12.834;2023-08-08T19:12:29;97363.53;;;18.01;59.57
22181;BME280;11256;50.830;12.834;2023-08-08T19:17:29;97358.25;;;17.96;59.84
22181;BME280;11256;50.830;12.834;2023-08-08T19:22:30;97355.69;;;17.91;59.87
22181;BME280;11256;50.830;12.834;2023-08-08T19:27:30;97359.13;;;17.88;60.12
22181;BME280;11256;50.830;12.834;2023-08-08T19:32:31;97352.25;;;17.82;60.23
22181;BME280;11256;50.830;12.834;2023-08-08T19:37:31;97354.38;;;17.76;60.40
22181;BME280;11256;50.830;12.834;2023-08-08T19:42:31;97351.94;;;17.75;60.47
22181;BME280;11256;50.830;12.834;2023-08-08T19:47:34;97348.75;;;17.73;60.80
22181;BME280;11256;50.830;12.834;2023-08-08T19:52:35;97350.75;;;17.64;60.72
22181;BME280;11256;50.830;12.834;2023-08-08T19:57:35;97353.03;;;17.62;60.95
22181;BME280;11256;50.830;12.834;2023-08-08T20:02:36;97347.09;;;17.60;61.38
22181;BME280;11256;50.830;12.834;2023-08-08T20:07:36;97344.34;;;17.60;61.53
22181;BME280;11256;50.830;12.834;2023-08-08T20:12:37;97341.13;;;17.58;61.94
22181;BME280;11256;50.830;12.834;2023-08-08T20:17:38;97352.78;;;17.55;61.65
22181;BME280;11256;50.830;12.834;2023-08-08T20:22:38;97346.34;;;17.51;61.49
22181;BME280;11256;50.830;12.834;2023-08-08T20:27:39;97343.66;;;17.42;61.57
22181;BME280;11256;50.830;12.834;2023-08-08T20:32:39;97349.97;;;17.43;61.46
22181;BME280;11256;50.830;12.834;2023-08-08T20:37:40;97337.22;;;17.38;61.26
22181;BME280;11256;50.830;12.834;2023-08-08T20:42:40;97339.34;;;17.33;61.15
22181;BME280;11256;50.830;12.834;2023-08-08T20:47:40;97346.16;;;17.27;60.96
22181;BME280;11256;50.830;12.834;2023-08-08T20:52:41;97348.28;;;17.21;60.99
22181;BME280;11256;50.830;12.834;2023-08-08T20:57:41;97352.00;;;17.17;60.85
22181;BME280;11256;50.830;12.834;2023-08-08T21:02:41;97352.53;;;17.10;61.05
22181;BME280;11256;50.830;12.834;2023-08-08T21:07:42;97350.78;;;17.06;61.17
22181;BME280;11256;50.830;12.834;2023-08-08T21:12:42;97341.63;;;17.02;61.07
22181;BME280;11256;50.830;12.834;2023-08-08T21:17:43;97341.53;;;16.90;61.19
22181;BME280;11256;50.830;12.834;2023-08-08T21:22:45;97354.22;;;16.94;61.13
22181;BME280;11256;50.830;12.834;2023-08-08T21:27:46;97357.81;;;16.86;60.98
22181;BME280;11256;50.830;12.834;2023-08-08T21:32:46;97356.84;;;16.82;61.16
22181;BME280;11256;50.830;12.834;2023-08-08T21:37:46;97355.09;;;16.78;61.16
22181;BME280;11256;50.830;12.834;2023-08-08T21:42:47;97365.25;;;16.69;61.18
22181;BME280;11256;50.830;12.834;2023-08-08T21:47:47;97360.13;;;16.67;61.35
22181;BME280;11256;50.830;12.834;2023-08-08T21:52:48;97372.66;;;16.68;61.08
22181;BME280;11256;50.830;12.834;2023-08-08T21:57:48;97381.84;;;16.64;61.29
22181;BME280;11256;50.830;12.834;2023-08-08T22:02:48;97377.69;;;16.58;61.46
22181;BME280;11256;50.830;12.834;2023-08-08T22:07:49;97380.44;;;16.58;61.22
22181;BME280;11256;50.830;12.834;2023-08-08T22:12:49;97386.53;;;16.55;61.29
22181;BME280;11256;50.830;12.834;2023-08-08T22:17:54;97378.72;;;16.45;60.96
22181;BME280;11256;50.830;12.834;2023-08-08T22:22:54;97382.22;;;16.45;61.34
22181;BME280;11256;50.830;12.834;2023-08-08T22:27:55;97375.31;;;16.39;61.17
22181;BME280;11256;50.830;12.834;2023-08-08T22:32:55;97382.84;;;16.34;61.34
22181;BME280;11256;50.830;12.834;2023-08-08T22:37:56;97388.00;;;16.27;61.37
22181;BME280;11256;50.830;12.834;2023-08-08T22:42:56;97390.28;;;16.25;61.54
22181;BME280;11256;50.830;12.834;2023-08-08T22:47:56;97391.59;;;16.19;61.34
22181;BME280;11256;50.830;12.834;2023-08-08T22:52:57;97385.13;;;16.15;61.36
22181;BME280;11256;50.830;12.834;2023-08-08T22:57:57;97384.84;;;16.08;61.69
22181;BME280;11256;50.830;12.834;2023-08-08T23:02:57;97381.13;;;16.04;61.66
22181;BME280;11256;50.830;12.834;2023-08-08T23:07:58;97396.91;;;16.07;61.71
22181;BME280;11256;50.830;12.834;2023-08-08T23:12:58;97392.06;;;16.04;61.84
22181;BME280;11256;50.830;12.834;2023-08-08T23:17:58;97387.56;;;15.99;61.94
22181;BME280;11256;50.830;12.834;2023-08-08T23:22:59;97383.72;;;15.92;61.86
22181;BME280;11256;50.830;12.834;2023-08-08T23:28:00;97375.38;;;15.88;62.07
22181;BME280;11256;50.830;12.834;2023-08-08T23:33:00;97375.84;;;15.82;62.06
22181;BME280;11256;50.830;12.834;2023-08-08T23:38:01;97389.03;;;15.80;62.03
22181;BME280;11256;50.830;12.834;2023-08-08T23:43:01;97380.97;;;15.75;62.11
22181;BME280;11256;50.830;12.834;2023-08-08T23:48:02;97374.53;;;15.71;62.19
22181;BME280;11256;50.830;12.834;2023-08-08T23:53:02;97366.97;;;15.68;62.23
22181;BME280;11256;50.830;12.834;2023-08-08T23:58:03;97363.31;;;15.64;62.58
